Time;durP1;ratioP1;P1;durP2;ratioP2;P2;SDS_P1;SDS_P2;PMS_P1;PMS_P2;Temp;Humidity;BMP_temperature;BMP_pressure;BME280_temperature;BME280_humidity;BME280_pressure;Samples;Min_cycle;Max_cycle;Signal;HPM_P1;HPM_P2
2021/01/16 00:00:18;;;;;;;;;;;;;;;;;;2079298;28;7005;-64
2021/01/16 00:01:20;;;;;;;;;;;;;;;;;;2079204;28;9042;-64
2021/01/16 00:02:22;;;;;;;;;;;;;;;;;;2087223;28;7360;-67
2021/01/16 00:03:24;;;;;;;;;;;;;;;;;;2086648;28;7005;-67
2021/01/16 00:04:27;;;;;;;;;;;;;;;;;;2079312;28;7113;-67
2021/01/16 00:05:29;;;;;;;;;;;;;;;;;;2079482;28;7130;-65
2021/01/16 00:06:32;;;;;;;;;;;;;;;;;;2071794;28;7021;-67
2021/01/16 00:07:34;;;;;;;;;;;;;;;;;;2071839;28;7013;-67
2021/01/16 00:08:36;;;;;;;;;;;;;;;;;;2071477;28;8063;-66
2021/01/16 00:09:38;;;;;;;;;;;;;;;;;;2071635;28;8048;-64
2021/01/16 00:10:42;;;;;;;;;;;;;;;;;;2079741;28;7013;-66
2021/01/16 00:11:44;;;;;;;;;;;;;;;;;;2079924;28;7045;-66
2021/01/16 00:12:49;;;;;;;;;;;;;;;;;;2079788;28;7021;-66
2021/01/16 00:13:51;;;;;;;;;;;;;;;;;;2079473;28;7025;-66
2021/01/16 00:14:53;;;;;;;;;;;;;;;;;;2079674;28;7092;-67
2021/01/16 00:15:55;;;;;;;;;;;;;;;;;;2079255;28;7013;-66
2021/01/16 00:16:57;;;;;;;;;;;;;;;;;;2079937;28;8015;-67
2021/01/16 00:18:04;;;;;;;;;;;;;;;;;;2080271;28;7013;-65
2021/01/16 00:19:06;;;;;;;;;;;;;;;;;;2079850;28;8048;-65
2021/01/16 00:20:08;;;;;;;;;;;;;;;;;;2079325;28;7097;-66
2021/01/16 00:21:10;;;;;;;;;;;;;;;;;;2077144;28;7089;-64
2021/01/16 00:22:12;;;;;;;;;;;;;;;;;;2070761;28;7009;-65
2021/01/16 00:23:14;;;;;;;;;;;;;;;;;;2071550;28;7037;-65
2021/01/16 00:24:16;;;;;;;;;;;;;;;;;;2071766;28;7337;-64
2021/01/16 00:25:18;;;;;;;;;;;;;;;;;;2071650;28;7188;-63
2021/01/16 00:26:20;;;;;;;;;;;;;;;;;;2070070;28;7337;-66
2021/01/16 00:27:22;;;;;;;;;;;;;;;;;;2071188;28;7054;-66
2021/01/16 00:28:30;;;;;;;;;;;;;;;;;;2070999;28;8015;-64
2021/01/16 00:29:32;;;;;;;;;;;;;;;;;;2071252;28;7009;-66
2021/01/16 00:30:34;;;;;;;;;;;;;;;;;;2070949;28;7042;-64
2021/01/16 00:31:36;;;;;;;;;;;;;;;;;;2071661;28;7092;-65
2021/01/16 00:32:39;;;;;;;;;;;;;;;;;;2071369;28;7088;-66
2021/01/16 00:33:42;;;;;;;;;;;;;;;;;;2071672;28;7009;-64
2021/01/16 00:34:45;;;;;;;;;;;;;;;;;;2071068;28;7050;-65
2021/01/16 00:35:48;;;;;;;;;;;;;;;;;;2071560;28;7066;-65
2021/01/16 00:36:50;;;;;;;;;;;;;;;;;;2071020;28;7034;-65
2021/01/16 00:37:53;;;;;;;;;;;;;;;;;;2071636;28;7304;-66
2021/01/16 00:38:55;;;;;;;;;;;;;;;;;;2071362;28;7093;-66
2021/01/16 00:39:57;;;;;;;;;;;;;;;;;;2071732;28;7100;-66
2021/01/16 00:40:59;;;;;;;;;;;;;;;;;;2071054;28;7017;-65
2021/01/16 00:42:01;;;;;;;;;;;;;;;;;;2071551;28;7127;-63
2021/01/16 00:43:07;;;;;;;;;;;;;;;;;;2069272;28;7324;-63
2021/01/16 00:44:09;;;;;;;;;;;;;;;;;;2071295;28;7108;-64
2021/01/16 00:45:11;;;;;;;;;;;;;;;;;;2071509;28;8058;-65
2021/01/16 00:46:13;;;;;;;;;;;;;;;;;;2074036;28;7377;-64
2021/01/16 00:47:16;;;;;;;;;;;;;;;;;;2069888;28;8863;-65
2021/01/16 00:48:19;;;;;;;;;;;;;;;;;;2071649;28;7204;-66
2021/01/16 00:49:21;;;;;;;;;;;;;;;;;;2071062;28;7077;-63
2021/01/16 00:50:23;;;;;;;;;;;;;;;;;;2072083;28;8241;-63
2021/01/16 00:51:25;;;;;;;;;;;;;;;;;;2070045;28;6994;-63
2021/01/16 00:52:27;;;;;;;;;;;;;;;;;;2070963;28;7046;-64
2021/01/16 00:53:28;;;;;;;;;;;;;;;;;;2070924;28;7109;-64
2021/01/16 00:54:30;;;;;;;;;;;;;;;;;;2071872;28;7009;-63
2021/01/16 00:55:32;;;;;;;;;;;;;;;;;;2078641;28;7026;-64
2021/01/16 00:56:35;;;;;;;;;;;;;;;;;;2078879;28;7193;-66
2021/01/16 00:57:37;;;;;;;;;;;;;;;;;;2079077;28;9016;-64
2021/01/16 00:58:39;;;;;;;;;;;;;;;;;;2078999;28;7050;-64
2021/01/16 00:59:41;;;;;;;;;;;;;;;;;;2078971;28;7092;-63
2021/01/16 01:00:44;;;;;;;;;;;;;;;;;;2078931;28;7013;-64
2021/01/16 01:01:46;;;;;;;;;;;;;;;;;;2078680;28;7113;-64
2021/01/16 01:02:48;;;;;;;;;;;;;;;;;;2071978;28;7168;-62
2021/01/16 01:03:50;;;;;;;;;;;;;;;;;;2070884;28;7096;-66
2021/01/16 01:04:52;;;;;;;;;;;;;;;;;;2071296;28;7096;-64
2021/01/16 01:05:56;;;;;;;;;;;;;;;;;;2070969;28;7069;-63
2021/01/16 01:07:00;;;;;;;;;;;;;;;;;;2070914;28;8994;-66
2021/01/16 01:08:02;;;;;;;;;;;;;;;;;;2070782;28;7021;-66
2021/01/16 01:09:04;;;;;;;;;;;;;;;;;;2070788;28;7017;-64
2021/01/16 01:10:17;;;;;;;;;;;;;;;;;;2070855;28;7028;-64
2021/01/16 01:11:19;;;;;;;;;;;;;;;;;;2070716;28;7009;-64
2021/01/16 01:12:21;;;;;;;;;;;;;;;;;;2071117;28;7096;-65
2021/01/16 01:13:24;;;;;;;;;;;;;;;;;;2071102;28;7093;-65
2021/01/16 01:14:25;;;;;;;;;;;;;;;;;;2070789;28;9075;-64
2021/01/16 01:15:27;;;;;;;;;;;;;;;;;;2069313;28;7009;-64
2021/01/16 01:16:29;;;;;;;;;;;;;;;;;;2070886;28;7013;-67
2021/01/16 01:17:31;;;;;;;;;;;;;;;;;;2070547;28;7105;-66
2021/01/16 01:18:33;;;;;;;;;;;;;;;;;;2070844;28;7153;-64
2021/01/16 01:19:35;;;;;;;;;;;;;;;;;;2070688;28;7034;-65
2021/01/16 01:20:37;;;;;;;;;;;;;;;;;;2070650;28;7132;-66
2021/01/16 01:21:39;;;;;;;;;;;;;;;;;;2077271;28;9093;-67
2021/01/16 01:22:42;;;;;;;;;;;;;;;;;;2079349;28;7992;-66
2021/01/16 01:23:44;;;;;;;;;;;;;;;;;;2078843;28;7141;-66
2021/01/16 01:24:46;;;;;;;;;;;;;;;;;;2079203;28;7005;-66
2021/01/16 01:25:48;;;;;;;;;;;;;;;;;;2078662;28;7403;-65
2021/01/16 01:26:49;;;;;;;;;;;;;;;;;;2078500;28;7100;-66
2021/01/16 01:27:54;;;;;;;;;;;;;;;;;;2078817;28;7320;-63
2021/01/16 01:28:55;;;;;;;;;;;;;;;;;;2078657;28;7009;-66
2021/01/16 01:29:59;;;;;;;;;;;;;;;;;;2078814;28;7084;-65
2021/01/16 01:31:01;;;;;;;;;;;;;;;;;;2078485;28;7096;-67
2021/01/16 01:32:03;;;;;;;;;;;;;;;;;;2078825;28;7112;-67
2021/01/16 01:33:12;;;;;;;;;;;;;;;;;;2071350;28;7137;-64
2021/01/16 01:34:14;;;;;;;;;;;;;;;;;;2071258;28;7013;-66
2021/01/16 01:35:18;;;;;;;;;;;;;;;;;;2069735;28;7567;-68
2021/01/16 01:36:20;;;;;;;;;;;;;;;;;;2072762;28;7145;-65
2021/01/16 01:37:22;;;;;;;;;;;;;;;;;;2069852;28;7361;-67
2021/01/16 01:38:24;;;;;;;;;;;;;;;;;;2071179;28;7707;-64
2021/01/16 01:39:26;;;;;;;;;;;;;;;;;;2070887;28;7034;-64
2021/01/16 01:40:28;;;;;;;;;;;;;;;;;;2070581;28;7092;-64
2021/01/16 01:41:30;;;;;;;;;;;;;;;;;;2070559;28;7009;-66
2021/01/16 01:42:32;;;;;;;;;;;;;;;;;;2070846;28;7010;-67
2021/01/16 01:43:34;;;;;;;;;;;;;;;;;;2070485;28;7155;-64
2021/01/16 01:44:36;;;;;;;;;;;;;;;;;;2070870;28;7009;-65
2021/01/16 01:45:38;;;;;;;;;;;;;;;;;;2070655;28;7112;-66
2021/01/16 01:46:41;;;;;;;;;;;;;;;;;;2070652;28;7545;-65
2021/01/16 01:47:43;;;;;;;;;;;;;;;;;;2070581;28;7124;-66
2021/01/16 01:48:46;;;;;;;;;;;;;;;;;;2070508;28;7217;-65
2021/01/16 01:49:48;;;;;;;;;;;;;;;;;;2070294;28;7096;-67
2021/01/16 01:50:50;;;;;;;;;;;;;;;;;;2070337;28;7142;-66
2021/01/16 01:51:52;;;;;;;;;;;;;;;;;;2070575;28;7010;-66
2021/01/16 01:52:56;;;;;;;;;;;;;;;;;;2070960;28;7025;-64
2021/01/16 01:53:59;;;;;;;;;;;;;;;;;;2070666;28;7158;-65
2021/01/16 01:55:05;;;;;;;;;;;;;;;;;;2070575;28;7328;-67
2021/01/16 01:56:07;;;;;;;;;;;;;;;;;;2068599;28;7100;-67
2021/01/16 01:57:11;;;;;;;;;;;;;;;;;;2070442;28;7089;-66
2021/01/16 01:58:16;;;;;;;;;;;;;;;;;;2069254;28;7839;-65
2021/01/16 01:59:18;;;;;;;;;;;;;;;;;;2070745;28;8011;-67
2021/01/16 02:00:21;;;;;;;;;;;;;;;;;;2077756;28;8052;-66
2021/01/16 02:01:27;;;;;;;;;;;;;;;;;;2077958;28;7050;-66
2021/01/16 02:02:32;;;;;;;;;;;;;;;;;;2069536;28;7010;-64
2021/01/16 02:03:35;;;;;;;;;;;;;;;;;;2070613;28;7112;-65
2021/01/16 02:04:38;;;;;;;;;;;;;;;;;;2072804;28;7133;-67
2021/01/16 02:05:41;;;;;;;;;;;;;;;;;;2078647;28;7137;-65
2021/01/16 02:06:44;;;;;;;;;;;;;;;;;;2078543;28;7084;-65
2021/01/16 02:07:46;;;;;;;;;;;;;;;;;;2078882;28;7009;-63
2021/01/16 02:08:48;;;;;;;;;;;;;;;;;;2074866;28;7096;-67
2021/01/16 02:09:51;;;;;;;;;;;;;;;;;;2070233;28;7084;-65
2021/01/16 02:10:53;;;;;;;;;;;;;;;;;;2070646;28;7038;-63
2021/01/16 02:11:55;;;;;;;;;;;;;;;;;;2070519;28;7078;-67
2021/01/16 02:12:57;;;;;;;;;;;;;;;;;;2070738;28;7050;-67
2021/01/16 02:13:59;;;;;;;;;;;;;;;;;;2071226;28;7129;-64
2021/01/16 02:15:25;;;;;;;;;;;;;;;;;;2070429;28;7125;-64
2021/01/16 02:16:34;;;;;;;;;;;;;;;;;;2072765;28;7998;-65
2021/01/16 02:17:41;;;;;;;;;;;;;;;;;;2078699;28;7141;-64
2021/01/16 02:18:45;;;;;;;;;;;;;;;;;;2078552;28;8443;-67
2021/01/16 02:20:08;;;;;;;;;;;;;;;;;;2078832;28;7120;-65
2021/01/16 02:21:12;;;;;;;;;;;;;;;;;;2076129;28;7084;-66
2021/01/16 02:22:15;;;;;;;;;;;;;;;;;;2070938;28;7036;-67
2021/01/16 02:23:17;;;;;;;;;;;;;;;;;;2069624;28;7089;-66
2021/01/16 02:24:26;;;;;;;;;;;;;;;;;;2070550;28;7013;-66
2021/01/16 02:25:57;;;;;;;;;;;;;;;;;;2070455;28;7088;-64
2021/01/16 02:27:04;;;;;;;;;;;;;;;;;;2076632;28;7009;-66
2021/01/16 02:28:10;;;;;;;;;;;;;;;;;;2077275;28;7014;-62
2021/01/16 02:29:13;;;;;;;;;;;;;;;;;;2071109;28;7017;-65
2021/01/16 02:30:18;;;;;;;;;;;;;;;;;;2070522;28;7207;-63
2021/01/16 02:31:21;;;;;;;;;;;;;;;;;;2070285;28;8329;-65
2021/01/16 02:32:25;;;;;;;;;;;;;;;;;;2070267;28;7117;-67
2021/01/16 02:33:29;;;;;;;;;;;;;;;;;;2070242;28;7108;-64
2021/01/16 02:34:33;;;;;;;;;;;;;;;;;;2070301;28;9400;-64
2021/01/16 02:35:40;;;;;;;;;;;;;;;;;;2070362;28;7013;-66
2021/01/16 02:36:41;;;;;;;;;;;;;;;;;;2069476;28;7072;-67
2021/01/16 02:37:56;;;;;;;;;;;;;;;;;;2068495;28;7013;-64
2021/01/16 02:39:01;;;;;;;;;;;;;;;;;;2078831;28;7897;-65
2021/01/16 02:40:30;;;;;;;;;;;;;;;;;;2078506;28;9066;-67
2021/01/16 02:41:35;;;;;;;;;;;;;;;;;;2078191;28;8033;-66
2021/01/16 02:42:44;;;;;;;;;;;;;;;;;;2078318;28;7448;-65
2021/01/16 02:43:56;;;;;;;;;;;;;;;;;;2078859;28;7109;-66
2021/01/16 02:45:02;;;;;;;;;;;;;;;;;;2077991;28;7150;-64
2021/01/16 02:46:16;;;;;;;;;;;;;;;;;;2077544;28;7097;-67
2021/01/16 02:47:24;;;;;;;;;;;;;;;;;;2070408;28;7109;-67
2021/01/16 02:48:37;;;;;;;;;;;;;;;;;;2069666;28;8043;-68
2021/01/16 02:49:51;;;;;;;;;;;;;;;;;;2070458;28;7116;-68
2021/01/16 02:50:54;;;;;;;;;;;;;;;;;;2071274;28;7010;-67
2021/01/16 02:52:28;;;;;;;;;;;;;;;;;;2069403;28;7013;-67
2021/01/16 02:53:35;;;;;;;;;;;;;;;;;;2077099;28;7046;-64
2021/01/16 02:54:39;;;;;;;;;;;;;;;;;;2071048;28;7013;-64
2021/01/16 02:55:41;;;;;;;;;;;;;;;;;;2070319;28;7149;-65
2021/01/16 02:56:44;;;;;;;;;;;;;;;;;;2069970;28;7157;-64
2021/01/16 02:57:46;;;;;;;;;;;;;;;;;;2073958;28;7113;-64
2021/01/16 02:58:48;;;;;;;;;;;;;;;;;;2078843;28;7009;-65
2021/01/16 02:59:51;;;;;;;;;;;;;;;;;;2078066;28;7138;-65
2021/01/16 03:00:54;;;;;;;;;;;;;;;;;;2078100;28;8023;-63
2021/01/16 03:01:57;;;;;;;;;;;;;;;;;;2078142;28;7010;-65
2021/01/16 03:02:59;;;;;;;;;;;;;;;;;;2077980;28;7013;-62
2021/01/16 03:04:02;;;;;;;;;;;;;;;;;;2078193;28;8031;-66
2021/01/16 03:05:05;;;;;;;;;;;;;;;;;;2078357;28;8038;-63
2021/01/16 03:06:07;;;;;;;;;;;;;;;;;;2078257;28;7045;-63
2021/01/16 03:07:10;;;;;;;;;;;;;;;;;;2078017;28;7009;-63
2021/01/16 03:08:13;;;;;;;;;;;;;;;;;;2078115;28;8062;-68
2021/01/16 03:09:16;;;;;;;;;;;;;;;;;;2078053;28;7017;-62
2021/01/16 03:10:18;;;;;;;;;;;;;;;;;;2078590;28;7009;-62
2021/01/16 03:11:21;;;;;;;;;;;;;;;;;;2078113;28;7010;-65
2021/01/16 03:12:23;;;;;;;;;;;;;;;;;;2078381;28;7088;-62
2021/01/16 03:13:26;;;;;;;;;;;;;;;;;;2077998;28;7013;-63
2021/01/16 03:14:31;;;;;;;;;;;;;;;;;;2078477;28;7088;-65
2021/01/16 03:15:33;;;;;;;;;;;;;;;;;;2071890;28;7046;-64
2021/01/16 03:16:38;;;;;;;;;;;;;;;;;;2074420;28;7088;-65
2021/01/16 03:17:49;;;;;;;;;;;;;;;;;;2078676;28;7013;-64
2021/01/16 03:18:55;;;;;;;;;;;;;;;;;;2078299;28;7399;-66
2021/01/16 03:19:58;;;;;;;;;;;;;;;;;;2079005;28;7899;-66
2021/01/16 03:21:02;;;;;;;;;;;;;;;;;;2077374;28;7092;-66
2021/01/16 03:22:17;;;;;;;;;;;;;;;;;;2069783;28;8104;-66
2021/01/16 03:23:18;;;;;;;;;;;;;;;;;;2070583;28;7116;-65
2021/01/16 03:24:20;;;;;;;;;;;;;;;;;;2070166;28;8043;-63
2021/01/16 03:25:24;;;;;;;;;;;;;;;;;;2070267;28;7980;-66
2021/01/16 03:26:27;;;;;;;;;;;;;;;;;;2070119;28;7014;-65
2021/01/16 03:27:29;;;;;;;;;;;;;;;;;;2069898;28;7057;-66
2021/01/16 03:28:31;;;;;;;;;;;;;;;;;;2070457;28;7109;-65
2021/01/16 03:29:32;;;;;;;;;;;;;;;;;;2069894;28;7089;-67
2021/01/16 03:30:34;;;;;;;;;;;;;;;;;;2070312;28;8059;-67
2021/01/16 03:31:37;;;;;;;;;;;;;;;;;;2070581;28;7025;-64
2021/01/16 03:32:40;;;;;;;;;;;;;;;;;;2069744;28;7138;-64
2021/01/16 03:33:42;;;;;;;;;;;;;;;;;;2070325;28;7329;-64
2021/01/16 03:34:46;;;;;;;;;;;;;;;;;;2070181;28;7037;-67
2021/01/16 03:35:48;;;;;;;;;;;;;;;;;;2070384;28;7093;-65
2021/01/16 03:36:50;;;;;;;;;;;;;;;;;;2069444;28;7100;-64
2021/01/16 03:37:53;;;;;;;;;;;;;;;;;;2069661;28;7137;-67
2021/01/16 03:38:55;;;;;;;;;;;;;;;;;;2071559;28;7013;-66
2021/01/16 03:39:57;;;;;;;;;;;;;;;;;;2079302;28;7014;-67
2021/01/16 03:40:59;;;;;;;;;;;;;;;;;;2079324;28;7785;-67
2021/01/16 03:42:01;;;;;;;;;;;;;;;;;;2069869;28;7437;-66
2021/01/16 03:43:03;;;;;;;;;;;;;;;;;;2071458;28;7013;-66
2021/01/16 03:44:05;;;;;;;;;;;;;;;;;;2078048;28;7017;-67
2021/01/16 03:45:12;;;;;;;;;;;;;;;;;;2079451;28;8022;-65
2021/01/16 03:46:13;;;;;;;;;;;;;;;;;;2079838;28;7092;-67
2021/01/16 03:47:15;;;;;;;;;;;;;;;;;;2078115;28;7014;-66
2021/01/16 03:48:17;;;;;;;;;;;;;;;;;;2078738;28;8024;-65
2021/01/16 03:49:19;;;;;;;;;;;;;;;;;;2078403;28;7109;-66
2021/01/16 03:50:22;;;;;;;;;;;;;;;;;;2079262;28;7025;-66
2021/01/16 03:51:24;;;;;;;;;;;;;;;;;;2071557;28;7013;-66
2021/01/16 03:52:28;;;;;;;;;;;;;;;;;;2079073;28;7029;-66
2021/01/16 03:53:30;;;;;;;;;;;;;;;;;;2077928;28;7117;-66
2021/01/16 03:54:32;;;;;;;;;;;;;;;;;;2071088;28;7014;-66
2021/01/16 03:55:34;;;;;;;;;;;;;;;;;;2070696;28;7097;-65
2021/01/16 03:56:37;;;;;;;;;;;;;;;;;;2071235;28;7468;-67
2021/01/16 03:57:39;;;;;;;;;;;;;;;;;;2071756;28;7013;-64
2021/01/16 03:58:41;;;;;;;;;;;;;;;;;;2071044;28;7013;-67
2021/01/16 03:59:43;;;;;;;;;;;;;;;;;;2071743;28;8071;-67
2021/01/16 04:00:45;;;;;;;;;;;;;;;;;;2071406;28;8032;-67
2021/01/16 04:01:48;;;;;;;;;;;;;;;;;;2071392;28;7084;-65
2021/01/16 04:02:50;;;;;;;;;;;;;;;;;;2071773;28;7009;-64
2021/01/16 04:03:52;;;;;;;;;;;;;;;;;;2071466;28;7088;-66
2021/01/16 04:04:54;;;;;;;;;;;;;;;;;;2071456;28;7009;-66
2021/01/16 04:05:56;;;;;;;;;;;;;;;;;;2072030;28;8051;-67
2021/01/16 04:06:58;;;;;;;;;;;;;;;;;;2072060;28;7006;-65
2021/01/16 04:08:00;;;;;;;;;;;;;;;;;;2072291;28;7013;-68
2021/01/16 04:09:02;;;;;;;;;;;;;;;;;;2071388;28;7476;-65
2021/01/16 04:10:04;;;;;;;;;;;;;;;;;;2071673;28;7377;-63
2021/01/16 04:11:06;;;;;;;;;;;;;;;;;;2071100;28;8011;-66
2021/01/16 04:12:09;;;;;;;;;;;;;;;;;;2072297;28;7084;-68
2021/01/16 04:13:13;;;;;;;;;;;;;;;;;;2079176;28;7009;-65
2021/01/16 04:14:15;;;;;;;;;;;;;;;;;;2079463;28;7736;-63
2021/01/16 04:15:20;;;;;;;;;;;;;;;;;;2076936;28;7009;-64
2021/01/16 04:16:25;;;;;;;;;;;;;;;;;;2070635;28;7179;-65
2021/01/16 04:17:27;;;;;;;;;;;;;;;;;;2071776;28;7065;-66
2021/01/16 04:18:29;;;;;;;;;;;;;;;;;;2071505;28;7093;-67
2021/01/16 04:19:31;;;;;;;;;;;;;;;;;;2071625;28;8006;-64
2021/01/16 04:20:33;;;;;;;;;;;;;;;;;;2070601;28;7021;-66
2021/01/16 04:21:35;;;;;;;;;;;;;;;;;;2073750;28;7308;-63
2021/01/16 04:22:37;;;;;;;;;;;;;;;;;;2070174;28;7066;-66
2021/01/16 04:23:39;;;;;;;;;;;;;;;;;;2077118;28;7052;-65
2021/01/16 04:24:41;;;;;;;;;;;;;;;;;;2079604;28;7320;-65
2021/01/16 04:25:43;;;;;;;;;;;;;;;;;;2079339;28;7009;-65
2021/01/16 04:26:46;;;;;;;;;;;;;;;;;;2078595;28;7096;-64
2021/01/16 04:27:48;;;;;;;;;;;;;;;;;;2070198;28;7021;-67
2021/01/16 04:28:50;;;;;;;;;;;;;;;;;;2071066;28;8043;-66
2021/01/16 04:29:52;;;;;;;;;;;;;;;;;;2071420;28;7994;-67
2021/01/16 04:30:54;;;;;;;;;;;;;;;;;;2071489;28;7092;-63
2021/01/16 04:31:56;;;;;;;;;;;;;;;;;;2071246;28;7089;-64
2021/01/16 04:32:58;;;;;;;;;;;;;;;;;;2071640;28;7092;-65
2021/01/16 04:34:00;;;;;;;;;;;;;;;;;;2070171;28;8034;-66
2021/01/16 04:35:03;;;;;;;;;;;;;;;;;;2070842;28;7142;-67
2021/01/16 04:36:05;;;;;;;;;;;;;;;;;;2070126;28;7165;-66
2021/01/16 04:37:07;;;;;;;;;;;;;;;;;;2069754;28;8034;-67
2021/01/16 04:38:09;;;;;;;;;;;;;;;;;;2076356;28;7060;-65
2021/01/16 04:39:11;;;;;;;;;;;;;;;;;;2079145;28;7238;-65
2021/01/16 04:40:13;;;;;;;;;;;;;;;;;;2075310;28;7006;-65
2021/01/16 04:41:18;;;;;;;;;;;;;;;;;;2071248;28;7987;-64
2021/01/16 04:42:20;;;;;;;;;;;;;;;;;;2071103;28;7017;-65
2021/01/16 04:43:26;;;;;;;;;;;;;;;;;;2071252;28;6993;-63
2021/01/16 04:44:33;;;;;;;;;;;;;;;;;;2071090;28;7005;-65
2021/01/16 04:45:35;;;;;;;;;;;;;;;;;;2071078;28;8049;-66
2021/01/16 04:46:39;;;;;;;;;;;;;;;;;;2071138;28;7151;-66
2021/01/16 04:47:43;;;;;;;;;;;;;;;;;;2071141;28;7105;-64
2021/01/16 04:48:56;;;;;;;;;;;;;;;;;;2070935;28;8005;-66
2021/01/16 04:49:59;;;;;;;;;;;;;;;;;;2071235;28;7006;-64
2021/01/16 04:51:02;;;;;;;;;;;;;;;;;;2071013;28;7101;-63
2021/01/16 04:52:04;;;;;;;;;;;;;;;;;;2071123;28;7320;-66
2021/01/16 04:53:08;;;;;;;;;;;;;;;;;;2071200;28;7017;-64
2021/01/16 04:54:17;;;;;;;;;;;;;;;;;;2071145;28;7113;-66
2021/01/16 04:55:19;;;;;;;;;;;;;;;;;;2070933;28;7009;-64
2021/01/16 04:56:22;;;;;;;;;;;;;;;;;;2071340;28;7049;-66
2021/01/16 04:57:28;;;;;;;;;;;;;;;;;;2070838;28;7100;-66
2021/01/16 04:58:32;;;;;;;;;;;;;;;;;;2071311;28;7061;-66
2021/01/16 04:59:34;;;;;;;;;;;;;;;;;;2070817;28;7009;-67
2021/01/16 05:00:38;;;;;;;;;;;;;;;;;;2071249;28;8030;-66
2021/01/16 05:01:40;;;;;;;;;;;;;;;;;;2071307;28;8007;-64
2021/01/16 05:02:42;;;;;;;;;;;;;;;;;;2071524;28;8107;-66
2021/01/16 05:03:50;;;;;;;;;;;;;;;;;;2070490;28;8031;-64
2021/01/16 05:04:59;;;;;;;;;;;;;;;;;;2071987;28;7009;-65
2021/01/16 05:06:02;;;;;;;;;;;;;;;;;;2071388;28;7009;-66
2021/01/16 05:07:05;;;;;;;;;;;;;;;;;;2070891;28;7309;-65
2021/01/16 05:08:08;;;;;;;;;;;;;;;;;;2070374;28;7138;-64
2021/01/16 05:09:10;;;;;;;;;;;;;;;;;;2070918;28;7009;-67
2021/01/16 05:10:12;;;;;;;;;;;;;;;;;;2070741;28;7995;-64
2021/01/16 05:11:32;;;;;;;;;;;;;;;;;;2078592;28;7013;-65
2021/01/16 05:12:41;;;;;;;;;;;;;;;;;;2074961;28;7013;-66
2021/01/16 05:13:46;;;;;;;;;;;;;;;;;;2074342;28;8047;-65
2021/01/16 05:15:14;;;;;;;;;;;;;;;;;;2079406;28;7160;-63
2021/01/16 05:16:24;;;;;;;;;;;;;;;;;;2078969;28;8024;-65
2021/01/16 05:17:28;;;;;;;;;;;;;;;;;;2079429;28;8046;-67
2021/01/16 05:18:37;;;;;;;;;;;;;;;;;;2078389;28;7014;-65
2021/01/16 05:19:39;;;;;;;;;;;;;;;;;;2079090;28;7339;-67
2021/01/16 05:20:43;;;;;;;;;;;;;;;;;;2078855;28;8041;-66
2021/01/16 05:21:45;;;;;;;;;;;;;;;;;;2072778;28;7108;-66
2021/01/16 05:22:46;;;;;;;;;;;;;;;;;;2070800;28;7010;-65
2021/01/16 05:23:51;;;;;;;;;;;;;;;;;;2071097;28;7096;-65
2021/01/16 05:25:01;;;;;;;;;;;;;;;;;;2069526;28;7084;-64
2021/01/16 05:26:03;;;;;;;;;;;;;;;;;;2070812;28;7006;-65
2021/01/16 05:27:06;;;;;;;;;;;;;;;;;;2070967;28;8050;-65
2021/01/16 05:28:09;;;;;;;;;;;;;;;;;;2072512;28;7370;-65
2021/01/16 05:29:11;;;;;;;;;;;;;;;;;;2078845;28;7001;-67
2021/01/16 05:30:13;;;;;;;;;;;;;;;;;;2079176;28;7105;-64
2021/01/16 05:31:15;;;;;;;;;;;;;;;;;;2079277;28;7088;-64
2021/01/16 05:32:20;;;;;;;;;;;;;;;;;;2078385;28;7037;-65
2021/01/16 05:33:26;;;;;;;;;;;;;;;;;;2078727;28;7009;-67
2021/01/16 05:34:30;;;;;;;;;;;;;;;;;;2078664;28;7096;-66
2021/01/16 05:35:32;;;;;;;;;;;;;;;;;;2069599;28;8091;-64
2021/01/16 05:36:34;;;;;;;;;;;;;;;;;;2075786;28;7054;-67
2021/01/16 05:37:36;;;;;;;;;;;;;;;;;;2079402;28;7012;-65
2021/01/16 05:38:43;;;;;;;;;;;;;;;;;;2078031;28;7009;-65
2021/01/16 05:39:47;;;;;;;;;;;;;;;;;;2069770;28;7021;-65
2021/01/16 05:40:49;;;;;;;;;;;;;;;;;;2071250;28;7312;-64
2021/01/16 05:41:59;;;;;;;;;;;;;;;;;;2070835;28;7059;-64
2021/01/16 05:43:01;;;;;;;;;;;;;;;;;;2077854;28;7155;-65
2021/01/16 05:44:05;;;;;;;;;;;;;;;;;;2078465;28;8007;-67
2021/01/16 05:45:08;;;;;;;;;;;;;;;;;;2071011;28;7104;-66
2021/01/16 05:46:11;;;;;;;;;;;;;;;;;;2073406;28;7039;-63
2021/01/16 05:47:14;;;;;;;;;;;;;;;;;;2078638;28;7092;-66
2021/01/16 05:48:16;;;;;;;;;;;;;;;;;;2078870;28;7014;-64
2021/01/16 05:49:19;;;;;;;;;;;;;;;;;;2078804;28;7320;-63
2021/01/16 05:50:23;;;;;;;;;;;;;;;;;;2078921;28;7009;-67
2021/01/16 05:51:25;;;;;;;;;;;;;;;;;;2078453;28;7009;-65
2021/01/16 05:52:28;;;;;;;;;;;;;;;;;;2078992;28;7418;-66
2021/01/16 05:53:31;;;;;;;;;;;;;;;;;;2078776;28;7013;-64
2021/01/16 05:54:34;;;;;;;;;;;;;;;;;;2079455;28;7360;-65
2021/01/16 05:55:39;;;;;;;;;;;;;;;;;;2079080;28;7201;-67
2021/01/16 05:56:42;;;;;;;;;;;;;;;;;;2078850;28;7162;-64
2021/01/16 05:57:48;;;;;;;;;;;;;;;;;;2078835;28;7038;-65
2021/01/16 05:58:52;;;;;;;;;;;;;;;;;;2069878;28;7109;-67
2021/01/16 05:59:57;;;;;;;;;;;;;;;;;;2070809;28;7108;-64
2021/01/16 06:01:03;;;;;;;;;;;;;;;;;;2070531;28;8020;-67
2021/01/16 06:02:08;;;;;;;;;;;;;;;;;;2071228;28;8061;-65
2021/01/16 06:03:11;;;;;;;;;;;;;;;;;;2074733;28;7009;-66
2021/01/16 06:04:17;;;;;;;;;;;;;;;;;;2078961;28;7097;-65
2021/01/16 06:05:25;;;;;;;;;;;;;;;;;;2071618;28;7149;-66
2021/01/16 06:06:34;;;;;;;;;;;;;;;;;;2070575;28;7009;-66
2021/01/16 06:07:37;;;;;;;;;;;;;;;;;;2078178;28;7321;-64
2021/01/16 06:08:49;;;;;;;;;;;;;;;;;;2079259;28;7034;-65
2021/01/16 06:09:52;;;;;;;;;;;;;;;;;;2078763;28;7196;-67
2021/01/16 06:10:56;;;;;;;;;;;;;;;;;;2079609;28;7096;-66
2021/01/16 06:12:03;;;;;;;;;;;;;;;;;;2079886;28;7180;-66
2021/01/16 06:13:15;;;;;;;;;;;;;;;;;;2079563;28;7009;-64
2021/01/16 06:14:18;;;;;;;;;;;;;;;;;;2078623;28;7009;-64
2021/01/16 06:15:20;;;;;;;;;;;;;;;;;;2079259;28;7113;-64
2021/01/16 06:16:22;;;;;;;;;;;;;;;;;;2079084;28;7010;-65
2021/01/16 06:17:26;;;;;;;;;;;;;;;;;;2069989;28;7017;-64
2021/01/16 06:18:30;;;;;;;;;;;;;;;;;;2070799;28;7010;-64
2021/01/16 06:19:36;;;;;;;;;;;;;;;;;;2070431;28;8040;-63
2021/01/16 06:20:38;;;;;;;;;;;;;;;;;;2070395;28;7084;-67
2021/01/16 06:21:43;;;;;;;;;;;;;;;;;;2076243;28;8017;-67
2021/01/16 06:22:49;;;;;;;;;;;;;;;;;;2078564;28;8058;-63
2021/01/16 06:23:53;;;;;;;;;;;;;;;;;;2078976;28;7089;-67
2021/01/16 06:24:58;;;;;;;;;;;;;;;;;;2069577;28;7129;-66
2021/01/16 06:26:07;;;;;;;;;;;;;;;;;;2070379;28;8057;-66
2021/01/16 06:27:19;;;;;;;;;;;;;;;;;;2070428;28;7029;-65
2021/01/16 06:28:23;;;;;;;;;;;;;;;;;;2070691;28;7364;-66
2021/01/16 06:29:36;;;;;;;;;;;;;;;;;;2070179;28;7994;-64
2021/01/16 06:30:39;;;;;;;;;;;;;;;;;;2070697;28;7332;-65
2021/01/16 06:31:51;;;;;;;;;;;;;;;;;;2070705;28;7010;-65
2021/01/16 06:32:53;;;;;;;;;;;;;;;;;;2070438;28;7146;-65
2021/01/16 06:34:09;;;;;;;;;;;;;;;;;;2070124;28;7013;-65
2021/01/16 06:35:12;;;;;;;;;;;;;;;;;;2070665;28;7005;-64
2021/01/16 06:36:19;;;;;;;;;;;;;;;;;;2070383;28;7042;-66
2021/01/16 06:37:29;;;;;;;;;;;;;;;;;;2069533;28;7013;-68
2021/01/16 06:38:31;;;;;;;;;;;;;;;;;;2070988;28;7089;-65
2021/01/16 06:39:34;;;;;;;;;;;;;;;;;;2078374;28;7108;-64
2021/01/16 06:40:36;;;;;;;;;;;;;;;;;;2078500;28;8033;-67
2021/01/16 06:41:45;;;;;;;;;;;;;;;;;;2078490;28;7037;-66
2021/01/16 06:42:50;;;;;;;;;;;;;;;;;;2070722;28;7151;-65
2021/01/16 06:43:58;;;;;;;;;;;;;;;;;;2070497;28;7160;-65
2021/01/16 06:45:02;;;;;;;;;;;;;;;;;;2070402;28;7050;-67
2021/01/16 06:46:08;;;;;;;;;;;;;;;;;;2070318;28;7343;-64
2021/01/16 06:47:11;;;;;;;;;;;;;;;;;;2070751;28;7054;-67
2021/01/16 06:48:13;;;;;;;;;;;;;;;;;;2069760;28;7092;-65
2021/01/16 06:49:23;;;;;;;;;;;;;;;;;;2070941;28;7947;-65
2021/01/16 06:50:26;;;;;;;;;;;;;;;;;;2070672;28;7028;-64
2021/01/16 06:51:29;;;;;;;;;;;;;;;;;;2070676;28;7017;-64
2021/01/16 06:52:32;;;;;;;;;;;;;;;;;;2070661;28;7088;-66
2021/01/16 06:53:34;;;;;;;;;;;;;;;;;;2070303;28;9020;-64
2021/01/16 06:54:38;;;;;;;;;;;;;;;;;;2070611;28;8065;-66
2021/01/16 06:55:58;;;;;;;;;;;;;;;;;;2070247;28;7092;-65
2021/01/16 06:57:00;;;;;;;;;;;;;;;;;;2070881;28;7096;-65
2021/01/16 06:58:18;;;;;;;;;;;;;;;;;;2069602;28;7013;-64
2021/01/16 06:59:25;;;;;;;;;;;;;;;;;;2070522;28;7042;-64
2021/01/16 07:00:28;;;;;;;;;;;;;;;;;;2070249;28;7139;-65
2021/01/16 07:01:31;;;;;;;;;;;;;;;;;;2070729;28;7172;-63
2021/01/16 07:02:35;;;;;;;;;;;;;;;;;;2070873;28;7009;-67
2021/01/16 07:03:39;;;;;;;;;;;;;;;;;;2070779;28;7129;-65
2021/01/16 07:04:50;;;;;;;;;;;;;;;;;;2070567;28;7122;-67
2021/01/16 07:05:54;;;;;;;;;;;;;;;;;;2070223;28;7013;-65
2021/01/16 07:07:03;;;;;;;;;;;;;;;;;;2070565;28;7018;-66
2021/01/16 07:08:05;;;;;;;;;;;;;;;;;;2073319;28;8026;-64
2021/01/16 07:09:09;;;;;;;;;;;;;;;;;;2078454;28;7013;-66
2021/01/16 07:10:11;;;;;;;;;;;;;;;;;;2078382;28;7100;-67
2021/01/16 07:11:13;;;;;;;;;;;;;;;;;;2078610;28;7005;-66
2021/01/16 07:12:18;;;;;;;;;;;;;;;;;;2078864;28;7017;-66
2021/01/16 07:13:20;;;;;;;;;;;;;;;;;;2078870;28;8059;-68
2021/01/16 07:14:22;;;;;;;;;;;;;;;;;;2080164;28;8008;-67
2021/01/16 07:15:28;;;;;;;;;;;;;;;;;;2080010;28;8014;-67
2021/01/16 07:16:33;;;;;;;;;;;;;;;;;;2080032;28;7096;-65
2021/01/16 07:17:37;;;;;;;;;;;;;;;;;;2080260;28;8049;-65
2021/01/16 07:18:40;;;;;;;;;;;;;;;;;;2079727;28;7112;-65
2021/01/16 07:19:43;;;;;;;;;;;;;;;;;;2080080;28;7088;-66
2021/01/16 07:20:47;;;;;;;;;;;;;;;;;;2079764;28;7005;-65
2021/01/16 07:21:50;;;;;;;;;;;;;;;;;;2072419;28;7109;-66
2021/01/16 07:22:52;;;;;;;;;;;;;;;;;;2071987;28;8039;-67
2021/01/16 07:23:54;;;;;;;;;;;;;;;;;;2076682;28;8039;-65
2021/01/16 07:25:00;;;;;;;;;;;;;;;;;;2079431;28;8069;-64